Time;durP1;ratioP1;P1;durP2;ratioP2;P2;SDS_P1;SDS_P2;PMS_P1;PMS_P2;Temp;Humidity;BMP_temperature;BMP_pressure;BME280_temperature;BME280_humidity;BME280_pressure;Samples;Min_cycle;Max_cycle;Signal;HPM_P1;HPM_P2
2023/02/28 00:00:23;;;;;;;5.25;3.42;;;;;;;-4.54;100.00;95922.69;5002586;28;20051;-73
2023/02/28 00:03:09;;;;;;;5.50;2.80;;;;;;;-4.56;100.00;95926.41;5004770;28;20089;-73
2023/02/28 00:05:34;;;;;;;4.45;2.65;;;;;;;-4.61;100.00;95926.91;5010896;28;20521;-74
2023/02/28 00:08:00;;;;;;;5.72;3.08;;;;;;;-4.60;100.00;95922.56;5010252;28;20096;-74
2023/02/28 00:10:28;;;;;;;10.13;3.58;;;;;;;-4.73;100.00;95912.78;5011230;28;20088;-74
2023/02/28 00:12:56;;;;;;;5.00;2.85;;;;;;;-4.75;100.00;95915.50;5007674;28;20038;-74
2023/02/28 00:15:23;;;;;;;6.72;3.20;;;;;;;-4.74;100.00;95917.13;5009910;28;20395;-74
2023/02/28 00:17:49;;;;;;;7.97;3.08;;;;;;;-4.74;100.00;95914.56;5010263;28;20049;-74
2023/02/28 00:20:16;;;;;;;8.40;2.80;;;;;;;-4.71;100.00;95911.66;5007356;28;20045;-74
2023/02/28 00:22:44;;;;;;;8.30;3.60;;;;;;;-4.75;100.00;95910.38;5009139;28;20042;-74
2023/02/28 00:25:13;;;;;;;6.68;3.22;;;;;;;-4.83;100.00;95907.81;5010324;28;20069;-74
2023/02/28 00:27:39;;;;;;;8.27;3.40;;;;;;;-4.77;100.00;95904.63;5007609;28;20486;-74
2023/02/28 00:30:07;;;;;;;5.60;3.00;;;;;;;-4.82;100.00;95904.28;5007780;28;20041;-72
2023/02/28 00:32:34;;;;;;;5.97;3.03;;;;;;;-4.82;100.00;95899.16;5008204;28;20041;-73
2023/02/28 00:35:00;;;;;;;6.93;3.40;;;;;;;-4.87;100.00;95896.25;5009245;28;20524;-73
2023/02/28 00:37:26;;;;;;;7.80;3.20;;;;;;;-4.92;100.00;95889.06;5010077;28;20042;-73
2023/02/28 00:39:51;;;;;;;6.22;3.15;;;;;;;-4.92;100.00;95903.66;5010092;28;20042;-72
2023/02/28 00:42:17;;;;;;;5.85;2.63;;;;;;;-4.90;100.00;95901.72;5001770;28;20042;-72
2023/02/28 00:44:43;;;;;;;6.13;3.15;;;;;;;-4.99;100.00;95902.72;5010222;28;20053;-72
2023/02/28 00:47:08;;;;;;;9.07;3.35;;;;;;;-5.02;100.00;95901.28;5008058;28;20049;-73
2023/02/28 00:49:34;;;;;;;5.85;3.00;;;;;;;-5.05;100.00;95899.81;5009625;28;20038;-73
2023/02/28 00:51:59;;;;;;;7.47;3.30;;;;;;;-4.98;100.00;95899.19;5009009;28;20115;-73
2023/02/28 00:54:25;;;;;;;6.22;3.40;;;;;;;-4.98;100.00;95904.31;5011248;28;20049;-73
2023/02/28 00:56:50;;;;;;;7.35;3.40;;;;;;;-4.97;100.00;95900.78;5003889;28;20060;-73
2023/02/28 00:59:17;;;;;;;7.95;3.22;;;;;;;-5.02;100.00;95897.91;5009487;28;20157;-73
2023/02/28 01:01:43;;;;;;;5.72;3.13;;;;;;;-5.06;100.00;95898.25;5010299;28;20157;-74
2023/02/28 01:04:10;;;;;;;9.65;2.80;;;;;;;-5.05;100.00;95904.97;5005735;28;20041;-73
2023/02/28 01:06:36;;;;;;;6.32;3.63;;;;;;;-5.04;100.00;95898.06;5007896;28;20069;-73
2023/02/28 01:09:03;;;;;;;6.05;3.20;;;;;;;-5.12;100.00;95898.88;5010830;28;20046;-73
2023/02/28 01:11:29;;;;;;;8.75;3.67;;;;;;;-5.16;100.00;95902.72;5001995;28;20161;-73
2023/02/28 01:13:54;;;;;;;5.72;3.00;;;;;;;-5.13;100.00;95886.19;5008728;28;20038;-72
2023/02/28 01:16:20;;;;;;;6.03;3.33;;;;;;;-5.17;100.00;95893.44;5009581;28;20080;-73
2023/02/28 01:18:46;;;;;;;6.75;3.25;;;;;;;-5.17;100.00;95885.72;5006451;28;20476;-73
2023/02/28 01:21:14;;;;;;;7.18;3.58;;;;;;;-5.22;100.00;95893.09;5008239;28;20042;-73
2023/02/28 01:23:40;;;;;;;6.78;3.20;;;;;;;-5.23;100.00;95883.78;5008125;28;20037;-73
2023/02/28 01:26:08;;;;;;;5.05;3.20;;;;;;;-5.25;100.00;95888.28;5009195;28;20042;-73
2023/02/28 01:28:34;;;;;;;6.93;3.55;;;;;;;-5.27;100.00;95879.97;5002428;28;20096;-73
2023/02/28 01:31:00;;;;;;;7.05;3.22;;;;;;;-5.27;100.00;95885.09;5010457;28;20046;-73
2023/02/28 01:33:25;;;;;;;6.72;3.63;;;;;;;-5.21;100.00;95879.31;5002384;28;20177;-73
2023/02/28 01:35:58;;;;;;;6.78;3.03;;;;;;;-5.30;100.00;95883.66;5009092;28;20046;-73
2023/02/28 01:38:24;;;;;;;8.48;3.17;;;;;;;-5.27;100.00;95879.97;5008866;28;20096;-73
2023/02/28 01:40:50;;;;;;;7.30;3.38;;;;;;;-5.35;100.00;95877.41;5006124;28;20450;-73
2023/02/28 01:43:31;;;;;;;6.47;3.83;;;;;;;-5.41;100.00;95878.84;5006959;28;20135;-74
2023/02/28 01:45:57;;;;;;;8.73;3.78;;;;;;;-5.52;100.00;95866.31;5009900;28;20045;-74
2023/02/28 01:48:28;;;;;;;11.10;2.97;;;;;;;-5.47;100.00;95870.00;5006599;28;20042;-74
2023/02/28 01:50:57;;;;;;;7.28;3.80;;;;;;;-5.53;100.00;95870.66;5005280;28;20038;-73
2023/02/28 01:53:45;;;;;;;6.60;3.05;;;;;;;-5.46;100.00;95871.63;5008360;28;20508;-73
2023/02/28 01:56:20;;;;;;;7.40;3.00;;;;;;;-5.54;100.00;95863.13;5008669;28;20054;-73
2023/02/28 01:58:53;;;;;;;6.82;3.50;;;;;;;-5.57;100.00;95866.81;5008626;28;20042;-74
2023/02/28 02:01:22;;;;;;;8.82;3.22;;;;;;;-5.56;100.00;95865.81;5008341;28;20461;-74
2023/02/28 02:03:57;;;;;;;5.07;2.95;;;;;;;-5.57;100.00;95859.13;5002528;28;20041;-74
2023/02/28 02:06:36;;;;;;;7.22;3.35;;;;;;;-5.60;100.00;95854.31;5010249;28;20399;-73
2023/02/28 02:09:02;;;;;;;7.20;3.25;;;;;;;-5.60;100.00;95859.44;5010409;28;20045;-73
2023/02/28 02:11:29;;;;;;;6.78;3.80;;;;;;;-5.61;100.00;95855.25;5009568;28;20160;-73
2023/02/28 02:14:10;;;;;;;9.18;3.50;;;;;;;-5.63;100.00;95854.59;5010948;28;20029;-74
2023/02/28 02:17:05;;;;;;;6.28;3.40;;;;;;;-5.60;100.00;95854.31;5004619;28;20034;-73
2023/02/28 02:19:40;;;;;;;5.88;3.20;;;;;;;-5.57;100.00;95859.13;5018988;28;20030;-75
2023/02/28 02:22:24;;;;;;;6.85;3.53;;;;;;;-5.61;100.00;95852.69;5034926;28;20025;-75
2023/02/28 02:24:59;;;;;;;6.75;3.38;;;;;;;-5.67;100.00;95853.34;5033795;28;20018;-75
2023/02/28 02:27:39;;;;;;;6.32;3.65;;;;;;;-5.72;100.00;95850.44;5035599;28;20041;-73
2023/02/28 02:30:39;;;;;;;7.32;3.47;;;;;;;-5.66;100.00;95852.38;5030847;28;20053;-74
2023/02/28 02:33:29;;;;;;;6.68;3.63;;;;;;;-5.61;100.00;95855.25;5026759;28;20056;-75
2023/02/28 02:36:22;;;;;;;9.20;3.33;;;;;;;-5.58;100.00;95857.50;5033938;28;20049;-74
2023/02/28 02:38:53;;;;;;;6.53;3.53;;;;;;;-5.61;100.00;95852.69;5031759;28;20025;-74
2023/02/28 02:41:34;;;;;;;6.53;3.78;;;;;;;-5.64;100.00;95858.16;5035784;28;20064;-74
2023/02/28 02:44:10;;;;;;;6.22;3.08;;;;;;;-5.69;100.00;95847.56;5013258;28;20092;-73
2023/02/28 02:46:47;;;;;;;6.93;3.25;;;;;;;-5.71;100.00;95846.94;5005948;28;20042;-73
2023/02/28 02:49:20;;;;;;;6.68;3.45;;;;;;;-5.76;100.00;95849.94;5012346;28;20349;-73
2023/02/28 02:51:47;;;;;;;6.93;3.45;;;;;;;-5.76;100.00;95845.63;5011230;28;20092;-74
2023/02/28 02:54:22;;;;;;;5.82;3.38;;;;;;;-5.78;100.00;95844.19;5012386;28;20046;-74
2023/02/28 02:56:49;;;;;;;7.57;3.55;;;;;;;-5.79;100.00;95840.84;5010695;28;20042;-73
2023/02/28 02:59:21;;;;;;;8.40;3.70;;;;;;;-5.77;100.00;95838.91;5007826;28;20038;-73
2023/02/28 03:01:53;;;;;;;6.28;3.50;;;;;;;-5.78;100.00;95837.28;5012525;28;20045;-74
2023/02/28 03:04:24;;;;;;;8.80;3.85;;;;;;;-5.75;100.00;95841.31;5011974;28;20042;-73
2023/02/28 03:06:54;;;;;;;8.32;3.65;;;;;;;-5.76;100.00;95839.69;5011278;28;20498;-74
2023/02/28 03:09:24;;;;;;;8.57;3.90;;;;;;;-5.81;100.00;95841.94;5012639;28;20567;-74
2023/02/28 03:11:54;;;;;;;6.97;3.65;;;;;;;-5.82;100.00;95838.59;5011574;28;20048;-74
2023/02/28 03:14:55;;;;;;;7.50;3.97;;;;;;;-5.76;100.00;95843.06;5011379;28;20038;-73
2023/02/28 03:17:40;;;;;;;6.30;3.70;;;;;;;-5.88;100.00;95841.75;5010011;28;20037;-74
2023/02/28 03:20:09;;;;;;;7.05;3.85;;;;;;;-5.85;100.00;95838.88;5007379;28;20117;-73
2023/02/28 03:22:49;;;;;;;7.43;3.65;;;;;;;-5.78;100.00;95847.53;4999322;28;20034;-73
2023/02/28 03:25:53;;;;;;;11.10;4.65;;;;;;;-5.82;100.00;95840.34;5010168;28;20137;-73
2023/02/28 03:28:26;;;;;;;7.18;4.05;;;;;;;-5.86;100.00;95834.75;4932538;28;20126;-73
2023/02/28 03:31:03;;;;;;;7.43;3.45;;;;;;;-5.83;100.00;95839.53;4951488;28;20047;-72
2023/02/28 03:33:42;;;;;;;7.38;3.45;;;;;;;-5.79;100.00;95840.00;4980356;28;20544;-73
2023/02/28 03:36:13;;;;;;;10.77;4.05;;;;;;;-5.78;100.00;95842.41;5011377;28;20038;-73
2023/02/28 03:38:54;;;;;;;14.40;4.25;;;;;;;-5.80;100.00;95844.34;5002696;28;20520;-73
2023/02/28 03:41:23;;;;;;;8.35;3.97;;;;;;;-5.79;100.00;95840.84;5009686;28;20049;-72
2023/02/28 03:43:55;;;;;;;9.07;3.70;;;;;;;-5.81;100.00;95840.19;5012202;28;20052;-73
2023/02/28 03:46:24;;;;;;;8.50;3.88;;;;;;;-5.78;100.00;95837.28;5010391;28;20049;-72
2023/02/28 03:49:00;;;;;;;7.55;4.00;;;;;;;-5.81;100.00;95844.50;5010092;28;20041;-72
2023/02/28 03:51:29;;;;;;;7.47;4.15;;;;;;;-5.86;100.00;95852.69;5010536;28;20441;-72
2023/02/28 03:53:59;;;;;;;8.60;4.22;;;;;;;-5.85;100.00;95841.44;5011867;28;20065;-72
2023/02/28 03:56:32;;;;;;;9.48;4.80;;;;;;;-5.83;100.00;95844.66;5010541;28;20096;-72
2023/02/28 03:59:13;;;;;;;7.72;4.22;;;;;;;-5.77;100.00;95846.59;5009016;28;20038;-72
2023/02/28 04:01:43;;;;;;;8.25;4.50;;;;;;;-5.83;100.00;95849.78;5004621;28;20042;-72
2023/02/28 04:04:10;;;;;;;10.85;3.90;;;;;;;-5.75;100.00;95856.69;5005964;28;20046;-72
2023/02/28 04:06:36;;;;;;;12.13;4.55;;;;;;;-5.78;100.00;95857.78;5010803;28;20065;-72
2023/02/28 04:09:03;;;;;;;8.88;4.55;;;;;;;-5.82;100.00;95861.66;5011072;28;20038;-72
2023/02/28 04:11:29;;;;;;;9.35;4.35;;;;;;;-5.77;100.00;95859.41;5005007;28;20099;-72
2023/02/28 04:13:55;;;;;;;11.98;4.63;;;;;;;-5.80;100.00;95869.97;5008783;28;20045;-72
2023/02/28 04:16:20;;;;;;;9.55;4.78;;;;;;;-5.85;100.00;95874.78;5010497;28;20042;-72
2023/02/28 04:18:46;;;;;;;13.02;4.72;;;;;;;-5.81;100.00;95878.63;5009308;28;20049;-72
2023/02/28 04:21:12;;;;;;;10.60;4.63;;;;;;;-5.85;100.00;95876.53;5008447;28;20049;-72
2023/02/28 04:23:37;;;;;;;10.00;5.13;;;;;;;-5.78;100.00;95883.44;5011218;28;20042;-72
2023/02/28 04:26:03;;;;;;;9.00;4.65;;;;;;;-5.78;100.00;95883.44;5009449;28;20517;-72
2023/02/28 04:28:29;;;;;;;10.18;4.88;;;;;;;-5.81;100.00;95883.75;5003785;28;20501;-73
2023/02/28 04:31:03;;;;;;;12.63;5.25;;;;;;;-5.85;100.00;95885.03;5009443;28;20045;-72
2023/02/28 04:33:30;;;;;;;;;;;;;;;-5.76;100.00;95885.84;5008023;28;20493;-72
2023/02/28 04:36:08;;;;;;;8.95;4.28;;;;;;;-5.80;100.00;95882.81;5009525;28;19928;-72
2023/02/28 04:38:36;;;;;;;10.27;5.30;;;;;;;-5.79;100.00;95879.28;5009689;28;20038;-72
2023/02/28 04:41:02;;;;;;;9.13;5.03;;;;;;;-5.77;100.00;95882.47;5001287;28;20069;-73
2023/02/28 04:43:28;;;;;;;11.02;5.38;;;;;;;-5.71;100.00;95880.25;5008620;28;20042;-73
2023/02/28 04:45:56;;;;;;;13.80;6.20;;;;;;;-5.74;100.00;95879.59;5003523;28;20609;-73
2023/02/28 04:48:24;;;;;;;10.57;5.65;;;;;;;-5.68;100.00;95877.38;5009219;28;20119;-72
2023/02/28 04:50:50;;;;;;;8.93;4.78;;;;;;;-5.64;100.00;95878.66;5009317;28;20604;-72
2023/02/28 04:53:16;;;;;;;13.23;5.80;;;;;;;-5.70;100.00;95884.41;5006950;28;20041;-72
2023/02/28 04:55:41;;;;;;;12.32;5.35;;;;;;;-5.67;100.00;95884.13;5008091;28;20049;-72
2023/02/28 04:58:07;;;;;;;10.93;5.45;;;;;;;-5.70;100.00;95889.53;5010351;28;20034;-73
2023/02/28 05:00:32;;;;;;;11.88;5.55;;;;;;;-5.71;100.00;95877.69;5009231;28;20033;-73
2023/02/28 05:02:58;;;;;;;12.43;6.57;;;;;;;-5.65;100.00;95897.56;4998910;28;20526;-73
2023/02/28 05:05:23;;;;;;;15.15;5.97;;;;;;;-5.63;100.00;95893.06;5007484;28;20045;-72
2023/02/28 05:07:49;;;;;;;14.30;6.38;;;;;;;-5.64;100.00;95894.06;5009868;28;20117;-72
2023/02/28 05:10:14;;;;;;;11.50;6.18;;;;;;;-5.58;100.00;95888.28;5009016;28;20394;-74
2023/02/28 05:12:40;;;;;;;12.27;6.30;;;;;;;-5.51;100.00;95907.19;5001592;28;20053;-73
2023/02/28 05:15:06;;;;;;;12.38;5.68;;;;;;;-5.46;100.00;95902.41;5009114;28;20044;-73
2023/02/28 05:17:31;;;;;;;14.60;5.82;;;;;;;-5.46;100.00;95896.47;5010231;28;20417;-73
2023/02/28 05:19:57;;;;;;;12.95;5.95;;;;;;;-5.36;100.00;95899.66;5006977;28;20037;-73
2023/02/28 05:22:22;;;;;;;15.93;7.05;;;;;;;-5.27;100.00;95901.28;5006188;28;20117;-72
2023/02/28 05:24:48;;;;;;;12.73;6.85;;;;;;;-5.19;100.00;95903.03;5009857;28;20045;-72
2023/02/28 05:27:14;;;;;;;13.15;6.53;;;;;;;-5.09;100.00;95902.88;5009589;28;20629;-72
2023/02/28 05:29:43;;;;;;;13.05;6.05;;;;;;;-5.05;100.00;95910.09;5007357;28;20061;-72
2023/02/28 05:32:12;;;;;;;17.23;7.25;;;;;;;-4.98;100.00;95909.47;5006961;28;20053;-72
2023/02/28 05:34:38;;;;;;;16.35;7.05;;;;;;;-4.97;100.00;95905.91;5003785;28;20430;-72
2023/02/28 05:37:05;;;;;;;15.63;7.72;;;;;;;-4.86;100.00;95913.28;5008069;28;20049;-72
2023/02/28 05:39:31;;;;;;;17.15;8.15;;;;;;;-4.81;100.00;95908.47;5007342;28;20077;-72
2023/02/28 05:41:57;;;;;;;17.58;7.90;;;;;;;-4.76;100.00;95908.75;5001595;28;20039;-73
2023/02/28 05:44:23;;;;;;;15.32;7.25;;;;;;;-4.68;100.00;95909.72;5007948;28;20042;-73
2023/02/28 05:46:48;;;;;;;17.60;7.70;;;;;;;-4.65;100.00;95906.84;5008275;28;20710;-72
2023/02/28 05:49:14;;;;;;;18.05;7.43;;;;;;;-4.58;100.00;95905.22;5008943;28;20046;-73
2023/02/28 05:51:40;;;;;;;31.08;8.25;;;;;;;-4.57;100.00;95907.63;5006590;28;20088;-74
2023/02/28 05:54:06;;;;;;;16.20;7.32;;;;;;;-4.53;100.00;95908.09;5006506;28;20113;-74
2023/02/28 05:56:34;;;;;;;21.70;7.68;;;;;;;-4.54;100.00;95915.00;5008508;28;20057;-73
2023/02/28 05:58:59;;;;;;;15.07;7.63;;;;;;;-4.43;100.00;95918.97;5004038;28;20042;-73
2023/02/28 06:01:36;;;;;;;17.20;8.57;;;;;;;-4.45;100.00;95920.91;5005589;28;20069;-74
2023/02/28 06:04:04;;;;;;;19.17;7.75;;;;;;;-4.39;100.00;95920.25;5001962;28;20117;-74
2023/02/28 06:06:30;;;;;;;18.70;8.45;;;;;;;-4.37;100.00;95923.47;5000906;28;20038;-73
2023/02/28 06:08:56;;;;;;;17.92;7.47;;;;;;;-4.37;100.00;95928.59;5005855;28;20046;-74
2023/02/28 06:11:26;;;;;;;19.67;9.02;;;;;;;-4.33;100.00;95933.41;5008365;28;20763;-73
2023/02/28 06:13:55;;;;;;;18.13;7.90;;;;;;;-4.25;100.00;95926.47;5006350;28;20120;-73
2023/02/28 06:16:21;;;;;;;19.88;8.73;;;;;;;-4.19;100.00;95935.28;5009616;28;20033;-72
2023/02/28 06:18:47;;;;;;;18.20;8.95;;;;;;;-4.20;100.00;95941.38;5009816;28;20038;-73
2023/02/28 06:21:13;;;;;;;22.10;10.23;;;;;;;-4.20;100.00;95944.75;5009381;28;20069;-72
2023/02/28 06:23:38;;;;;;;19.65;8.48;;;;;;;-4.12;100.00;95941.38;5011373;28;20042;-73
2023/02/28 06:26:05;;;;;;;16.48;8.63;;;;;;;-4.21;100.00;95927.75;5012234;28;20042;-74
2023/02/28 06:28:30;;;;;;;19.10;10.18;;;;;;;-4.17;100.00;95938.47;5009293;28;20034;-74
2023/02/28 06:30:56;;;;;;;21.27;9.05;;;;;;;-4.08;100.00;95947.78;5009709;28;20081;-74
2023/02/28 06:33:21;;;;;;;19.42;8.80;;;;;;;-4.13;100.00;95944.91;5006870;28;20398;-73
2023/02/28 06:35:50;;;;;;;15.82;8.32;;;;;;;-4.12;100.00;95946.50;5008607;28;20060;-74
2023/02/28 06:38:16;;;;;;;19.00;8.95;;;;;;;-4.13;100.00;95939.75;5008804;28;20053;-74
2023/02/28 06:40:41;;;;;;;18.75;9.38;;;;;;;-4.06;100.00;95945.84;5010486;28;20503;-74
2023/02/28 06:43:07;;;;;;;20.27;9.23;;;;;;;-3.98;100.00;95946.78;5011384;28;20054;-74
2023/02/28 06:45:33;;;;;;;19.63;9.35;;;;;;;-4.02;100.00;95952.25;5010238;28;20042;-74
2023/02/28 06:47:59;;;;;;;17.52;9.13;;;;;;;-4.09;100.00;95956.47;5009199;28;20049;-74
2023/02/28 06:50:27;;;;;;;22.75;10.60;;;;;;;-4.00;100.00;95965.72;5005175;28;20497;-74
2023/02/28 06:52:54;;;;;;;17.55;9.63;;;;;;;-3.95;100.00;95967.00;5011579;28;20491;-75
2023/02/28 06:55:19;;;;;;;25.40;9.85;;;;;;;-3.98;100.00;95972.47;5014148;28;20050;-74
2023/02/28 06:57:45;;;;;;;21.35;9.07;;;;;;;-3.91;100.00;95971.63;5010618;28;20045;-75
2023/02/28 07:00:11;;;;;;;18.27;8.93;;;;;;;-3.95;100.00;95961.84;5005425;28;20414;-77
2023/02/28 07:02:37;;;;;;;19.23;9.23;;;;;;;-3.86;100.00;95971.16;5008021;28;20049;-76
2023/02/28 07:05:05;;;;;;;16.83;8.73;;;;;;;-3.79;100.00;95972.09;5013650;28;20137;-76
2023/02/28 07:07:30;;;;;;;58.42;9.88;;;;;;;-3.86;100.00;95981.44;5007889;28;20087;-76
2023/02/28 07:09:56;;;;;;;16.58;9.13;;;;;;;-3.86;100.00;95981.44;5002499;28;20042;-76
2023/02/28 07:12:21;;;;;;;23.63;10.05;;;;;;;-3.81;100.00;95979.16;5010281;28;20046;-75
2023/02/28 07:14:47;;;;;;;18.05;8.90;;;;;;;-3.78;100.00;95978.81;5012850;28;20457;-77
2023/02/28 07:17:13;;;;;;;20.70;9.38;;;;;;;-3.76;100.00;95984.63;5011238;28;20042;-76
2023/02/28 07:19:39;;;;;;;21.10;9.15;;;;;;;-3.74;100.00;95990.38;5022004;28;20046;-76
2023/02/28 07:22:05;;;;;;;21.00;9.23;;;;;;;-3.79;100.00;95982.38;5008946;28;20528;-77
2023/02/28 07:24:30;;;;;;;18.63;9.23;;;;;;;-3.71;100.00;95979.75;5013990;28;20038;-75
2023/02/28 07:26:56;;;;;;;18.77;9.18;;;;;;;-3.67;100.00;95975.88;5009450;28;20046;-74
2023/02/28 07:29:22;;;;;;;19.73;9.20;;;;;;;-3.62;100.00;95987.44;5006631;28;20049;-77
2023/02/28 07:31:47;;;;;;;20.30;9.50;;;;;;;-3.83;100.00;95986.25;5008697;28;20053;-75
2023/02/28 07:34:14;;;;;;;19.40;9.25;;;;;;;-3.71;100.00;95982.31;5008310;28;20046;-74
2023/02/28 07:36:39;;;;;;;21.00;9.30;;;;;;;-3.77;100.00;95985.56;5012187;28;20045;-76
2023/02/28 07:39:05;;;;;;;16.98;8.52;;;;;;;-3.80;100.00;95985.91;5010539;28;20042;-76
2023/02/28 07:41:33;;;;;;;20.05;9.88;;;;;;;-3.77;100.00;95970.13;5012534;28;20504;-74
2023/02/28 07:43:59;;;;;;;18.50;8.98;;;;;;;-3.66;100.00;95977.47;5011211;28;20030;-75
2023/02/28 07:46:26;;;;;;;21.90;9.55;;;;;;;-3.64;100.00;95974.75;5009289;28;20124;-75
2023/02/28 07:48:52;;;;;;;25.67;10.00;;;;;;;-3.56;100.00;95971.31;5012309;28;20045;-75
2023/02/28 07:51:18;;;;;;;19.42;9.55;;;;;;;-3.44;100.00;95974.31;5003622;28;20513;-75
2023/02/28 07:53:44;;;;;;;19.27;10.35;;;;;;;-3.37;100.00;95976.03;5008967;28;20104;-75
2023/02/28 07:56:10;;;;;;;18.65;9.85;;;;;;;-3.39;100.00;95972.84;5009002;28;20050;-75
2023/02/28 07:58:36;;;;;;;21.40;10.07;;;;;;;-3.39;100.00;95972.84;5007168;28;20038;-75
2023/02/28 08:01:09;;;;;;;16.52;8.50;;;;;;;-3.46;100.00;95982.22;5003636;28;20088;-75
2023/02/28 08:03:35;;;;;;;22.27;10.27;;;;;;;-3.45;100.00;95994.09;5009074;28;20046;-75
2023/02/28 08:06:02;;;;;;;20.50;9.57;;;;;;;-3.49;100.00;95977.41;5005253;28;20049;-75
2023/02/28 08:08:31;;;;;;;18.55;8.82;;;;;;;-3.51;100.00;95984.50;5011815;28;20049;-76
2023/02/28 08:11:01;;;;;;;16.98;9.13;;;;;;;-3.52;100.00;95998.31;5007179;28;20695;-75
2023/02/28 08:13:27;;;;;;;22.88;10.77;;;;;;;-3.33;100.00;95989.38;5007343;28;20186;-75
2023/02/28 08:15:54;;;;;;;20.02;10.43;;;;;;;-3.40;100.00;95991.84;5009272;28;20505;-76
2023/02/28 08:18:21;;;;;;;21.45;10.45;;;;;;;-3.36;100.00;95992.28;5009630;28;20042;-74
2023/02/28 08:20:46;;;;;;;23.17;10.15;;;;;;;-3.49;100.00;95992.84;5006304;28;20034;-75
2023/02/28 08:23:12;;;;;;;20.63;10.57;;;;;;;-3.32;100.00;95998.69;5009853;28;20053;-74
2023/02/28 08:25:38;;;;;;;22.45;9.68;;;;;;;-3.35;100.00;95993.88;5008082;28;20045;-76
2023/02/28 08:28:04;;;;;;;20.20;10.15;;;;;;;-3.27;100.00;95995.63;5009954;28;20088;-76
2023/02/28 08:30:29;;;;;;;21.58;10.88;;;;;;;-3.21;100.00;95989.78;5003433;28;20049;-75
2023/02/28 08:32:55;;;;;;;22.70;10.63;;;;;;;-3.14;100.00;95990.72;5000364;28;20043;-75
2023/02/28 08:35:21;;;;;;;21.65;10.50;;;;;;;-3.11;100.00;96000.66;5006592;28;20050;-74
2023/02/28 08:37:48;;;;;;;21.10;10.27;;;;;;;-3.02;100.00;96004.78;5001845;28;20096;-73
2023/02/28 08:40:17;;;;;;;18.38;9.90;;;;;;;-3.31;100.00;96006.25;5010774;28;20049;-72
2023/02/28 08:42:50;;;;;;;20.85;10.20;;;;;;;-3.15;100.00;96014.84;5005720;28;20053;-71
2023/02/28 08:45:15;;;;;;;23.30;10.55;;;;;;;-2.94;100.00;96005.69;5010065;28;20489;-74
2023/02/28 08:47:41;;;;;;;19.48;10.30;;;;;;;-2.90;100.00;96019.81;5005686;28;20117;-74
2023/02/28 08:50:07;;;;;;;18.98;10.57;;;;;;;-3.03;100.00;96018.63;5009980;28;20437;-74
2023/02/28 08:52:33;;;;;;;21.58;10.38;;;;;;;-2.94;100.00;96016.00;5004434;28;20052;-74
2023/02/28 08:54:59;;;;;;;24.23;11.65;;;;;;;-2.87;100.00;96014.34;5011485;28;20042;-74
2023/02/28 08:57:26;;;;;;;20.92;10.95;;;;;;;-2.75;100.00;96015.53;5009446;28;20401;-74
2023/02/28 08:59:52;;;;;;;23.23;10.52;;;;;;;-2.62;100.00;96014.94;5009793;28;20038;-74
2023/02/28 09:02:18;;;;;;;21.73;10.07;;;;;;;-2.77;100.00;96017.50;5009273;28;20555;-74
2023/02/28 09:04:45;;;;;;;29.50;11.60;;;;;;;-2.77;100.00;96022.66;5004118;28;20046;-74
2023/02/28 09:07:11;;;;;;;22.95;11.20;;;;;;;-2.72;100.00;96022.13;5009472;28;20046;-73
2023/02/28 09:09:37;;;;;;;21.08;10.82;;;;;;;-2.71;100.00;96024.53;5010916;28;20041;-72
2023/02/28 09:12:03;;;;;;;24.00;10.63;;;;;;;-2.65;100.00;96021.25;5004155;28;20125;-72
2023/02/28 09:14:29;;;;;;;20.55;10.70;;;;;;;-2.69;100.00;96027.72;5010021;28;20050;-72
2023/02/28 09:16:54;;;;;;;19.20;10.25;;;;;;;-2.58;100.00;96020.56;5010778;28;20088;-72
2023/02/28 09:19:20;;;;;;;19.02;10.40;;;;;;;-2.72;100.00;96029.84;4998410;28;20046;-72
2023/02/28 09:21:46;;;;;;;23.88;10.23;;;;;;;-2.80;100.00;96034.09;5009492;28;20034;-72
2023/02/28 09:24:14;;;;;;;21.63;10.82;;;;;;;-2.81;100.00;96031.69;5010937;28;20049;-72
2023/02/28 09:26:39;;;;;;;20.65;10.98;;;;;;;-2.63;100.00;96034.78;5010558;28;20127;-72
2023/02/28 09:29:06;;;;;;;20.10;11.45;;;;;;;-2.32;100.00;96036.44;5008145;28;20549;-72
2023/02/28 09:31:32;;;;;;;22.33;11.00;;;;;;;-2.46;100.00;96037.22;5005257;28;20046;-72
2023/02/28 09:33:59;;;;;;;21.30;10.60;;;;;;;-2.48;100.00;96041.75;5004824;28;20042;-72
2023/02/28 09:36:26;;;;;;;20.08;10.43;;;;;;;-2.43;100.00;96039.44;5008794;28;20445;-72
2023/02/28 09:38:52;;;;;;;21.75;10.98;;;;;;;-2.33;100.00;96045.16;5009625;28;20046;-72
2023/02/28 09:41:28;;;;;;;22.63;11.30;;;;;;;-2.36;100.00;96045.50;5006754;28;20050;-72
2023/02/28 09:44:00;;;;;;;24.45;11.70;;;;;;;-2.24;100.00;96048.47;5007599;28;20532;-71
2023/02/28 09:46:32;;;;;;;19.90;10.32;;;;;;;-2.23;100.00;96060.38;5012375;28;20056;-71
2023/02/28 09:49:01;;;;;;;23.67;10.95;;;;;;;-2.39;100.00;96061.31;5011195;28;20114;-72
2023/02/28 09:51:58;;;;;;;20.00;11.00;;;;;;;-2.22;100.00;96061.19;5011200;28;20525;-71
2023/02/28 09:54:27;;;;;;;19.27;9.73;;;;;;;-2.30;100.00;96062.84;5011885;28;20066;-71
2023/02/28 09:57:02;;;;;;;19.85;11.05;;;;;;;-2.33;100.00;96060.63;5012506;28;20041;-71
2023/02/28 09:59:34;;;;;;;19.55;10.25;;;;;;;-2.11;100.00;96058.19;5013040;28;20042;-71
2023/02/28 10:02:17;;;;;;;18.95;10.18;;;;;;;-2.31;100.00;96066.41;5014202;28;20041;-71
2023/02/28 10:04:51;;;;;;;22.25;10.45;;;;;;;-2.23;100.00;96060.38;5007117;28;20038;-71
2023/02/28 10:07:30;;;;;;;21.63;10.38;;;;;;;-2.10;100.00;96060.59;5011204;28;20497;-71
2023/02/28 10:10:01;;;;;;;20.77;10.32;;;;;;;-1.99;100.00;96067.06;5013818;28;20117;-71
2023/02/28 10:12:29;;;;;;;25.58;10.82;;;;;;;-2.20;100.00;96069.53;5010992;28;20034;-71
2023/02/28 10:14:58;;;;;;;22.42;11.30;;;;;;;-2.20;100.00;96069.53;5012983;28;20051;-71
2023/02/28 10:17:30;;;;;;;21.52;11.25;;;;;;;-2.10;100.00;96076.06;5013359;28;20046;-71
2023/02/28 10:19:58;;;;;;;20.70;11.05;;;;;;;-1.93;100.00;96071.53;5012035;28;20041;-71
2023/02/28 10:22:38;;;;;;;19.70;10.63;;;;;;;-2.06;100.00;96071.34;5007184;28;20039;-71
2023/02/28 10:25:22;;;;;;;22.92;11.38;;;;;;;-1.94;100.00;96077.69;5007110;28;20046;-70
2023/02/28 10:27:53;;;;;;;16.83;9.35;;;;;;;-1.90;100.00;96079.91;5013331;28;20046;-71
2023/02/28 10:30:18;;;;;;;23.27;11.45;;;;;;;-1.88;100.00;96073.59;5012988;28;20050;-71
2023/02/28 10:32:50;;;;;;;21.25;10.35;;;;;;;-1.57;100.00;96076.00;5004664;28;20069;-70
2023/02/28 10:35:20;;;;;;;19.95;10.50;;;;;;;-1.69;100.00;96082.56;5013716;28;20049;-71
2023/02/28 10:37:56;;;;;;;21.52;10.50;;;;;;;-1.62;100.00;96083.47;5013899;28;20048;-72
2023/02/28 10:40:21;;;;;;;17.15;10.32;;;;;;;-1.57;100.00;96081.16;5015824;28;20117;-70
2023/02/28 10:43:06;;;;;;;21.20;10.48;;;;;;;-1.51;100.00;96078.84;5007182;28;20037;-70
2023/02/28 10:45:35;;;;;;;19.98;10.18;;;;;;;-1.09;100.00;96087.69;5014492;28;20053;-72
2023/02/28 10:48:05;;;;;;;19.58;10.52;;;;;;;-1.18;100.00;96084.41;5015033;28;20041;-70
2023/02/28 10:50:41;;;;;;;19.52;10.05;;;;;;;-1.28;100.00;96083.88;5004305;28;20069;-70
2023/02/28 10:53:16;;;;;;;19.45;10.35;;;;;;;-1.00;100.00;96091.78;5008811;28;20472;-70
2023/02/28 10:55:42;;;;;;;20.10;10.98;;;;;;;-1.17;100.00;96090.38;5012834;28;20124;-70
2023/02/28 10:58:23;;;;;;;21.90;11.15;;;;;;;-0.90;100.00;96097.44;5013202;28;20402;-71
2023/02/28 11:00:48;;;;;;;23.48;10.60;;;;;;;-0.67;100.00;96091.31;5005009;28;20072;-70
2023/02/28 11:03:24;;;;;;;17.92;9.68;;;;;;;-0.15;100.00;96088.59;5002590;28;20046;-71
2023/02/28 11:05:50;;;;;;;19.80;10.82;;;;;;;-0.34;100.00;96090.81;5012801;28;20042;-70
2023/02/28 11:08:18;;;;;;;20.63;11.23;;;;;;;-0.55;100.00;96092.44;5013174;28;20053;-70
2023/02/28 11:10:48;;;;;;;22.35;10.48;;;;;;;-0.32;100.00;96093.22;5007150;28;20046;-71
2023/02/28 11:13:20;;;;;;;19.92;10.32;;;;;;;-0.37;100.00;96094.56;5008958;28;20476;-70
2023/02/28 11:15:55;;;;;;;29.40;12.32;;;;;;;-0.16;100.00;96097.34;5012429;28;20042;-70
2023/02/28 11:18:27;;;;;;;19.85;10.50;;;;;;;-0.04;100.00;96086.28;5012850;28;20042;-70
2023/02/28 11:20:55;;;;;;;22.27;11.32;;;;;;;0.28;100.00;96093.66;5009165;28;20076;-70
2023/02/28 11:23:25;;;;;;;19.35;10.18;;;;;;;1.26;100.00;96095.28;5011033;28;20057;-70
2023/02/28 11:25:54;;;;;;;20.98;11.50;;;;;;;1.77;100.00;96087.00;5007723;28;20065;-71